Terminal Aerodrome Forecast
Issued by NWS

Home | Current Version | Previous Version | Text Only | Print | Product List | Glossary On
Versions: 1 2 3 4 5 6 7 8 9 10 11 12 13 14 15 16 17 18 19
000
FTUS41 KPHI 232321
TAFPNE
TAF
KPNE 232321Z 2400/2424 VRB03KT P6SM BKN250
     FM241200 07006KT P6SM OVC100
     FM241800 09010KT P6SM OVC050
      TEMPO 2421/2423 -SHRA OVC035
     FM242300 09012G18KT 6SM -SHRA OVC025=

USA.gov is the U.S. government's official web portal to all federal, state and local government web resources and services.